createdAt,value
2023-04-25T00:00:43.932Z,4.60
2023-04-25T00:03:47.051Z,4.13
2023-04-25T00:06:50.185Z,5.13
2023-04-25T00:09:53.029Z,3.28
2023-04-25T00:12:58.563Z,3.22
2023-04-25T00:16:01.649Z,4.15
2023-04-25T00:19:05.268Z,5.43
2023-04-25T00:22:08.305Z,3.83
2023-04-25T00:25:11.474Z,2.95
2023-04-25T00:28:16.044Z,4.30
2023-04-25T00:31:19.021Z,3.53
2023-04-25T00:34:22.068Z,3.90
2023-04-25T00:37:24.924Z,3.15
2023-04-25T00:40:27.796Z,4.32
2023-04-25T00:43:34.240Z,4.22
2023-04-25T00:46:37.952Z,3.50
2023-04-25T00:49:40.740Z,6.40
2023-04-25T00:52:46.365Z,5.10
2023-04-25T00:55:51.746Z,4.05
2023-04-25T00:58:57.436Z,5.07
2023-04-25T01:02:00.769Z,3.40
2023-04-25T01:05:04.086Z,4.53
2023-04-25T01:08:06.988Z,4.57
2023-04-25T01:11:10.262Z,2.90
2023-04-25T01:14:14.512Z,3.88
2023-04-25T01:17:18.675Z,3.60
2023-04-25T01:20:24.292Z,2.45
2023-04-25T01:23:28.600Z,5.03
2023-04-25T01:26:31.926Z,4.50
2023-04-25T01:29:35.190Z,3.33
2023-04-25T01:32:40.105Z,3.22
2023-04-25T01:35:43.123Z,2.90
2023-04-25T01:38:48.402Z,3.67
2023-04-25T01:41:51.980Z,3.70
2023-04-25T01:44:55.001Z,2.42
2023-04-25T01:48:00.266Z,4.80
2023-04-25T01:51:03.328Z,3.78
2023-04-25T01:54:08.406Z,3.50
2023-04-25T01:57:11.183Z,3.78
2023-04-25T02:00:16.338Z,5.43
2023-04-25T02:03:19.166Z,4.13
2023-04-25T02:06:22.219Z,5.18
2023-04-25T02:09:29.313Z,5.03
2023-04-25T02:12:33.366Z,5.13
2023-04-25T02:15:55.903Z,4.13
2023-04-25T02:18:58.701Z,6.13
2023-04-25T02:22:02.698Z,2.50
2023-04-25T02:25:08.081Z,3.55
2023-04-25T02:28:11.226Z,4.43
2023-04-25T02:31:14.572Z,4.85
2023-04-25T02:34:17.389Z,3.65
2023-04-25T02:37:20.224Z,3.58
2023-04-25T02:40:24.384Z,3.90
2023-04-25T02:43:27.181Z,3.08
2023-04-25T02:46:38.960Z,3.58
2023-04-25T02:49:42.487Z,3.35
2023-04-25T02:52:46.164Z,2.50
2023-04-25T02:55:54.132Z,3.47
2023-04-25T02:58:57.126Z,3.35
2023-04-25T03:02:00.031Z,2.08
2023-04-25T03:05:03.317Z,3.08
2023-04-25T03:08:06.820Z,4.22
2023-04-25T03:11:12.452Z,2.10
2023-04-25T03:14:15.414Z,2.83
2023-04-25T03:17:18.217Z,4.22
2023-04-25T03:20:21.164Z,2.35
2023-04-25T03:23:24.033Z,2.30
2023-04-25T03:26:28.221Z,5.47
2023-04-25T03:29:31.062Z,11.27
2023-04-25T03:32:36.368Z,2.50
2023-04-25T03:35:39.163Z,3.47
2023-04-25T03:38:42.857Z,4.15
2023-04-25T03:41:48.136Z,2.75
2023-04-25T03:44:51.636Z,3.55
2023-04-25T03:47:54.529Z,3.33
2023-04-25T03:50:57.573Z,2.55
2023-04-25T03:54:00.886Z,2.10
2023-04-25T03:57:32.707Z,3.83
2023-04-25T04:00:35.914Z,1.55
2023-04-25T04:03:39.645Z,4.28
2023-04-25T04:06:43.347Z,2.15
2023-04-25T04:09:52.020Z,4.43
2023-04-25T04:13:02.273Z,2.60
2023-04-25T04:16:05.330Z,2.17
2023-04-25T04:19:08.509Z,3.50
2023-04-25T04:22:12.327Z,3.22
2023-04-25T04:25:16.943Z,3.10
2023-04-25T04:28:40.427Z,2.58
2023-04-25T04:32:03.449Z,1.67
2023-04-25T04:35:10.016Z,2.17
2023-04-25T04:38:13.348Z,2.80
2023-04-25T04:41:16.293Z,3.65
2023-04-25T04:44:45.678Z,2.30
2023-04-25T04:48:02.064Z,2.78
2023-04-25T04:51:23.619Z,2.75
2023-04-25T04:54:26.550Z,1.73
2023-04-25T04:57:40.531Z,3.38
2023-04-25T05:01:02.102Z,2.40
2023-04-25T05:04:25.384Z,3.17
2023-04-25T05:07:46.792Z,2.05
2023-04-25T05:11:03.209Z,2.42
2023-04-25T05:14:19.014Z,2.85
2023-04-25T05:17:46.376Z,2.58
2023-04-25T05:21:09.406Z,2.67
2023-04-25T05:24:21.535Z,2.55
2023-04-25T05:27:46.428Z,2.83
2023-04-25T05:31:21.255Z,3.28
2023-04-25T05:34:46.516Z,1.58
2023-04-25T05:37:58.911Z,3.47
2023-04-25T05:41:20.164Z,2.33
2023-04-25T05:47:52.355Z,4.63
2023-04-25T05:51:01.304Z,2.67
2023-04-25T05:54:22.474Z,2.20
2023-04-25T05:57:27.128Z,2.05
2023-04-25T06:00:31.911Z,4.13
2023-04-25T06:03:34.877Z,4.35
2023-04-25T06:06:39.092Z,1.75
2023-04-25T06:09:41.891Z,4.00
2023-04-25T06:12:46.224Z,1.67
2023-04-25T06:15:51.280Z,2.70
2023-04-25T06:21:58.500Z,2.92
2023-04-25T06:25:01.883Z,2.42
2023-04-25T06:28:05.231Z,3.00
2023-04-25T06:31:08.478Z,2.80
2023-04-25T06:34:12.012Z,3.92
2023-04-25T06:37:18.325Z,4.28
2023-04-25T06:40:21.227Z,4.45
2023-04-25T06:43:24.151Z,4.45
2023-04-25T06:46:48.355Z,2.88
2023-04-25T06:49:51.728Z,5.75
2023-04-25T06:52:56.296Z,3.45
2023-04-25T06:56:00.344Z,3.83
2023-04-25T06:59:12.549Z,3.83
2023-04-25T07:02:17.191Z,2.67
2023-04-25T07:05:20.362Z,1.98
2023-04-25T07:08:24.554Z,7.00
2023-04-25T07:11:27.380Z,3.50
2023-04-25T07:14:30.280Z,6.88
2023-04-25T07:17:35.684Z,2.88
2023-04-25T07:20:38.460Z,3.00
2023-04-25T07:23:42.648Z,5.72
2023-04-25T07:26:51.019Z,3.83
2023-04-25T07:30:07.696Z,3.92
2023-04-25T07:33:10.509Z,3.75
2023-04-25T07:36:13.747Z,3.60
2023-04-25T07:39:18.064Z,4.18
2023-04-25T07:42:22.150Z,8.10
2023-04-25T07:45:25.381Z,7.03
2023-04-25T07:48:28.627Z,4.32
2023-04-25T07:51:32.768Z,4.70
2023-04-25T07:54:42.729Z,3.28
2023-04-25T07:57:52.209Z,2.00
2023-04-25T08:00:56.701Z,3.97
2023-04-25T08:04:22.294Z,4.05
2023-04-25T08:07:38.819Z,5.63
2023-04-25T08:10:44.396Z,4.63
2023-04-25T08:13:48.453Z,2.63
2023-04-25T08:16:51.520Z,3.75
2023-04-25T08:19:56.423Z,2.83
2023-04-25T08:23:03.421Z,2.03
2023-04-25T08:26:21.694Z,3.45
2023-04-25T08:29:26.889Z,3.25
2023-04-25T08:32:31.059Z,2.20
2023-04-25T08:36:02.187Z,1.70
2023-04-25T08:39:06.280Z,2.63
2023-04-25T08:42:17.478Z,1.98
2023-04-25T08:45:20.706Z,2.42
2023-04-25T08:48:26.247Z,2.80
2023-04-25T08:51:33.209Z,2.70
2023-04-25T08:54:41.071Z,6.05
2023-04-25T08:57:47.442Z,4.15
2023-04-25T09:00:50.901Z,2.40
2023-04-25T09:03:55.683Z,2.80
2023-04-25T09:06:59.521Z,5.70
2023-04-25T09:10:04.317Z,4.82
2023-04-25T09:13:15.876Z,2.75
2023-04-25T09:17:02.269Z,4.63
2023-04-25T09:20:16.022Z,4.88
2023-04-25T09:23:20.848Z,3.78
2023-04-25T09:26:23.661Z,9.48
2023-04-25T09:29:39.133Z,9.70
2023-04-25T09:32:45.773Z,8.63
2023-04-25T09:35:53.880Z,10.07
2023-04-25T09:39:17.401Z,14.63
2023-04-25T09:42:29.837Z,11.30
2023-04-25T09:45:46.487Z,6.70
2023-04-25T09:48:54.620Z,7.97
2023-04-25T09:52:16.722Z,8.15
2023-04-25T09:55:36.302Z,4.88
2023-04-25T09:58:40.821Z,6.43
2023-04-25T10:01:45.695Z,7.07
2023-04-25T10:04:57.526Z,10.02
2023-04-25T10:08:09.627Z,9.65
2023-04-25T10:11:15.356Z,7.72
2023-04-25T10:14:18.445Z,9.75
2023-04-25T10:17:23.076Z,7.68
2023-04-25T10:20:26.202Z,5.90
2023-04-25T10:23:31.296Z,8.82
2023-04-25T10:26:34.542Z,4.80
2023-04-25T10:29:38.645Z,5.95
2023-04-25T10:32:43.876Z,6.57
2023-04-25T10:35:47.475Z,4.57
2023-04-25T10:38:51.895Z,14.35
2023-04-25T10:41:57.178Z,7.03
2023-04-25T10:45:04.944Z,5.53
2023-04-25T10:48:27.323Z,3.35
2023-04-25T10:51:43.454Z,4.45
2023-04-25T10:54:57.225Z,8.23
2023-04-25T10:58:00.007Z,8.95
2023-04-25T11:01:03.657Z,10.18
2023-04-25T11:04:08.586Z,6.78
2023-04-25T11:07:22.191Z,7.97
2023-04-25T11:10:27.747Z,6.97
2023-04-25T11:13:31.883Z,11.02
2023-04-25T11:16:34.676Z,8.77
2023-04-25T11:19:38.887Z,7.40
2023-04-25T11:22:42.866Z,7.90
2023-04-25T11:25:46.452Z,9.02
2023-04-25T11:28:51.447Z,8.73
2023-04-25T11:31:54.933Z,6.53
2023-04-25T11:34:59.829Z,8.60
2023-04-25T11:38:03.348Z,11.57
2023-04-25T11:41:06.262Z,8.43
2023-04-25T11:44:09.222Z,7.07
2023-04-25T11:47:12.212Z,6.90
2023-04-25T11:50:16.345Z,8.85
2023-04-25T11:53:20.340Z,6.70
2023-04-25T11:56:23.415Z,11.73
2023-04-25T11:59:27.988Z,8.50
2023-04-25T12:02:30.907Z,12.05
2023-04-25T12:05:35.555Z,11.75
2023-04-25T12:08:38.525Z,11.20
2023-04-25T12:11:44.866Z,14.00
2023-04-25T12:14:49.748Z,5.90
2023-04-25T12:17:54.988Z,8.20
2023-04-25T12:21:01.092Z,24.40
2023-04-25T12:24:15.441Z,11.40
2023-04-25T12:27:20.361Z,13.82
2023-04-25T12:30:23.505Z,10.05
2023-04-25T12:33:27.040Z,8.45
2023-04-25T12:36:31.895Z,10.23
2023-04-25T12:39:34.659Z,10.75
2023-04-25T12:42:37.773Z,6.80
2023-04-25T12:45:41.045Z,7.78
2023-04-25T12:48:44.276Z,7.43
2023-04-25T12:51:48.981Z,8.10
2023-04-25T12:54:51.875Z,5.47
2023-04-25T12:57:54.594Z,9.23
2023-04-25T13:00:57.431Z,12.45
2023-04-25T13:04:00.404Z,11.18
2023-04-25T13:07:05.110Z,7.13
2023-04-25T13:10:08.934Z,8.15
2023-04-25T13:13:11.863Z,8.30
2023-04-25T13:16:15.719Z,14.27
2023-04-25T13:19:18.504Z,4.60
2023-04-25T13:22:22.790Z,9.05
2023-04-25T13:25:25.847Z,6.85
2023-04-25T13:28:28.838Z,7.63
2023-04-25T13:31:31.773Z,9.85
2023-04-25T13:34:35.081Z,6.47
2023-04-25T13:37:40.090Z,10.60
2023-04-25T13:40:42.880Z,13.68
2023-04-25T13:43:45.872Z,13.38
2023-04-25T13:46:48.685Z,7.32
2023-04-25T13:49:51.502Z,14.48
2023-04-25T13:52:55.670Z,11.88
2023-04-25T13:55:58.431Z,7.30
2023-04-25T13:59:01.131Z,10.40
2023-04-25T14:02:04.021Z,8.57
2023-04-25T14:05:07.811Z,8.57
2023-04-25T14:08:12.099Z,10.38
2023-04-25T14:11:14.807Z,6.38
2023-04-25T14:14:17.794Z,6.07
2023-04-25T14:17:20.845Z,5.75
2023-04-25T14:20:24.923Z,7.18
2023-04-25T14:23:29.075Z,12.18
2023-04-25T14:26:32.257Z,6.32
2023-04-25T14:29:35.092Z,6.57
2023-04-25T14:32:37.942Z,5.65
2023-04-25T14:35:40.737Z,8.55
2023-04-25T14:38:44.916Z,8.73
2023-04-25T14:41:47.724Z,6.15
2023-04-25T14:44:50.815Z,5.45
2023-04-25T14:47:53.752Z,6.15
2023-04-25T14:50:57.458Z,6.32
2023-04-25T14:54:01.614Z,5.20
2023-04-25T14:57:04.480Z,7.60
2023-04-25T15:00:10.489Z,9.80
2023-04-25T15:03:14.161Z,3.30
2023-04-25T15:06:17.303Z,6.68
2023-04-25T15:09:21.519Z,8.35
2023-04-25T15:12:24.350Z,4.68
2023-04-25T15:15:27.609Z,6.47
2023-04-25T15:18:30.431Z,5.35
2023-04-25T15:21:33.621Z,6.68
2023-04-25T15:24:37.970Z,4.13
2023-04-25T15:27:44.543Z,8.00
2023-04-25T15:30:47.407Z,6.00
2023-04-25T15:33:50.380Z,9.10
2023-04-25T15:36:53.612Z,4.43
2023-04-25T15:40:05.579Z,7.20
2023-04-25T15:43:15.611Z,5.50
2023-04-25T15:46:18.489Z,9.70
2023-04-25T15:49:21.802Z,7.68
2023-04-25T15:52:24.570Z,8.40
2023-04-25T15:55:29.216Z,5.88
2023-04-25T15:58:32.076Z,9.80
2023-04-25T16:01:34.937Z,7.00
2023-04-25T16:04:38.575Z,8.02
2023-04-25T16:07:42.752Z,7.13
2023-04-25T16:10:47.190Z,10.70
2023-04-25T16:13:50.515Z,7.03
2023-04-25T16:16:53.902Z,7.28
2023-04-25T16:19:56.757Z,7.90
2023-04-25T16:22:59.560Z,6.88
2023-04-25T16:26:03.726Z,6.50
2023-04-25T16:29:06.907Z,5.93
2023-04-25T16:32:09.687Z,7.20
2023-04-25T16:35:12.438Z,10.50
2023-04-25T16:38:15.178Z,6.50
2023-04-25T16:41:19.663Z,8.95
2023-04-25T16:44:22.423Z,6.90
2023-04-25T16:47:25.392Z,5.03
2023-04-25T16:50:28.384Z,4.35
2023-04-25T16:53:31.264Z,6.95
2023-04-25T16:56:35.422Z,5.85
2023-04-25T16:59:38.799Z,6.78
2023-04-25T17:02:41.751Z,3.78
2023-04-25T17:05:44.650Z,5.35
2023-04-25T17:08:47.467Z,6.47
2023-04-25T17:11:51.792Z,8.63
2023-04-25T17:14:54.756Z,11.73
2023-04-25T17:17:57.669Z,6.60
2023-04-25T17:21:01.987Z,4.90
2023-04-25T17:24:09.593Z,5.38
2023-04-25T17:27:13.760Z,5.78
2023-04-25T17:30:17.297Z,8.93
2023-04-25T17:33:20.048Z,4.95
2023-04-25T17:36:23.610Z,5.65
2023-04-25T17:39:26.371Z,5.43
2023-04-25T17:42:30.617Z,4.00
2023-04-25T17:45:34.840Z,3.63
2023-04-25T17:48:37.676Z,5.03
2023-04-25T17:51:40.515Z,6.05
2023-04-25T17:54:43.305Z,4.95
2023-04-25T17:57:47.445Z,5.93
2023-04-25T18:00:50.310Z,7.65
2023-04-25T18:03:53.572Z,3.70
2023-04-25T18:06:56.700Z,4.50
2023-04-25T18:09:59.408Z,7.60
2023-04-25T18:13:03.681Z,4.47
2023-04-25T18:16:07.116Z,2.95
2023-04-25T18:19:11.711Z,4.22
2023-04-25T18:22:14.649Z,4.45
2023-04-25T18:25:18.019Z,3.92
2023-04-25T18:28:22.951Z,5.15
2023-04-25T18:31:26.441Z,5.72
2023-04-25T18:34:29.287Z,4.88
2023-04-25T18:37:32.054Z,3.58
2023-04-25T18:40:36.233Z,5.00
2023-04-25T18:43:44.461Z,5.05
2023-04-25T18:46:47.304Z,4.93
2023-04-25T18:49:50.813Z,4.22
2023-04-25T18:52:54.199Z,3.47
2023-04-25T18:55:57.108Z,4.35
2023-04-25T18:59:01.275Z,4.50
2023-04-25T19:02:05.323Z,3.58
2023-04-25T19:05:10.066Z,4.35
2023-04-25T19:08:12.819Z,4.95
2023-04-25T19:14:24.524Z,4.80
2023-04-25T19:17:29.049Z,3.95
2023-04-25T19:20:34.547Z,5.03
2023-04-25T19:23:37.372Z,6.47
2023-04-25T19:26:40.561Z,4.32
2023-04-25T19:29:48.090Z,6.22
2023-04-25T19:32:51.083Z,6.03
2023-04-25T19:35:53.892Z,3.92
2023-04-25T19:39:02.030Z,3.97
2023-04-25T19:42:04.961Z,2.88
2023-04-25T19:45:10.484Z,3.05
2023-04-25T19:48:14.154Z,9.05
2023-04-25T19:51:16.957Z,5.97
2023-04-25T19:54:21.113Z,5.75
2023-04-25T19:57:27.862Z,3.33
2023-04-25T20:00:32.249Z,4.57
2023-04-25T20:03:35.120Z,3.38
2023-04-25T20:06:37.957Z,8.43
2023-04-25T20:09:41.213Z,3.22
2023-04-25T20:12:46.060Z,4.18
2023-04-25T20:15:50.297Z,6.97
2023-04-25T20:18:54.364Z,5.40
2023-04-25T20:21:58.200Z,7.32
2023-04-25T20:25:00.959Z,4.45
2023-04-25T20:28:03.692Z,3.88
2023-04-25T20:31:07.820Z,2.30
2023-04-25T20:34:10.695Z,6.70
2023-04-25T20:37:14.913Z,2.70
2023-04-25T20:40:19.369Z,2.15
2023-04-25T20:43:22.220Z,2.42
2023-04-25T20:46:26.552Z,6.13
2023-04-25T20:49:29.385Z,2.47
2023-04-25T20:52:32.918Z,4.53
2023-04-25T20:55:36.583Z,3.83
2023-04-25T20:58:39.426Z,4.35
2023-04-25T21:01:43.783Z,2.75
2023-04-25T21:04:46.720Z,3.45
2023-04-25T21:07:49.603Z,3.05
2023-04-25T21:10:53.511Z,6.45
2023-04-25T21:13:56.235Z,5.65
2023-04-25T21:17:00.517Z,2.95
2023-04-25T21:20:10.216Z,3.00
2023-04-25T21:23:13.000Z,9.88
2023-04-25T21:26:15.794Z,5.40
2023-04-25T21:29:19.234Z,8.13
2023-04-25T21:32:23.318Z,5.05
2023-04-25T21:35:26.610Z,3.55
2023-04-25T21:38:29.361Z,3.92
2023-04-25T21:41:32.256Z,3.10
2023-04-25T21:44:35.021Z,7.10
2023-04-25T21:47:39.339Z,5.80
2023-04-25T21:50:42.127Z,5.78
2023-04-25T21:53:44.856Z,8.40
2023-04-25T21:56:47.611Z,8.10
2023-04-25T21:59:50.390Z,4.78
2023-04-25T22:02:55.324Z,5.57
2023-04-25T22:05:58.242Z,4.85
2023-04-25T22:09:00.972Z,6.68
2023-04-25T22:12:03.916Z,9.73
2023-04-25T22:15:08.728Z,3.58
2023-04-25T22:18:14.292Z,5.40
2023-04-25T22:21:17.911Z,8.05
2023-04-25T22:24:22.403Z,4.35
2023-04-25T22:27:25.155Z,4.20
2023-04-25T22:30:31.026Z,4.30
2023-04-25T22:33:35.835Z,3.70
2023-04-25T22:36:38.674Z,4.53
2023-04-25T22:39:41.424Z,5.80
2023-04-25T22:42:44.461Z,4.47
2023-04-25T22:45:47.284Z,4.20
2023-04-25T22:48:51.641Z,5.45
2023-04-25T22:51:56.719Z,5.45
2023-04-25T22:55:01.573Z,4.07
2023-04-25T22:58:04.473Z,6.10
2023-04-25T23:01:08.448Z,6.72
2023-04-25T23:04:12.630Z,6.50
2023-04-25T23:07:15.921Z,2.80
2023-04-25T23:10:19.294Z,1.80
2023-04-25T23:13:22.209Z,3.05
2023-04-25T23:16:25.049Z,6.90
2023-04-25T23:19:29.667Z,2.50
2023-04-25T23:22:32.390Z,2.67
2023-04-25T23:25:39.747Z,3.38
2023-04-25T23:28:42.857Z,4.47
2023-04-25T23:31:45.665Z,4.55
2023-04-25T23:34:50.180Z,4.30
2023-04-25T23:37:52.944Z,4.25
2023-04-25T23:40:55.732Z,2.58
2023-04-25T23:43:58.626Z,3.20
2023-04-25T23:47:01.386Z,3.58
2023-04-25T23:50:06.355Z,3.22
2023-04-25T23:53:09.158Z,2.20
2023-04-25T23:56:11.961Z,2.72
2023-04-25T23:59:14.755Z,2.42
